sensor_id;sensor_type;location;lat;lon;timestamp;P1;durP1;ratioP1;P2;durP2;ratioP2
18340;SDS011;9296;48.084;16.352;2022-10-16T00:02:11;53.78;;;30.27;;
18340;SDS011;9296;48.084;16.352;2022-10-16T00:04:38;126.10;;;30.95;;
18340;SDS011;9296;48.084;16.352;2022-10-16T00:07:07;111.47;;;31.90;;
18340;SDS011;9296;48.084;16.352;2022-10-16T00:09:34;89.60;;;29.52;;
18340;SDS011;9296;48.084;16.352;2022-10-16T00:12:01;149.48;;;31.92;;
18340;SDS011;9296;48.084;16.352;2022-10-16T00:14:47;99.35;;;29.30;;
18340;SDS011;9296;48.084;16.352;2022-10-16T00:17:14;128.23;;;31.38;;
18340;SDS011;9296;48.084;16.352;2022-10-16T00:19:41;56.55;;;28.15;;
18340;SDS011;9296;48.084;16.352;2022-10-16T00:22:10;113.32;;;29.60;;
18340;SDS011;9296;48.084;16.352;2022-10-16T00:24:37;58.88;;;29.10;;
18340;SDS011;9296;48.084;16.352;2022-10-16T00:27:04;46.70;;;28.20;;
18340;SDS011;9296;48.084;16.352;2022-10-16T00:29:31;88.18;;;29.40;;
18340;SDS011;9296;48.084;16.352;2022-10-16T00:31:58;121.60;;;28.67;;
18340;SDS011;9296;48.084;16.352;2022-10-16T00:34:26;91.65;;;28.58;;
18340;SDS011;9296;48.084;16.352;2022-10-16T00:36:53;159.98;;;30.63;;
18340;SDS011;9296;48.084;16.352;2022-10-16T00:39:21;58.88;;;27.90;;
18340;SDS011;9296;48.084;16.352;2022-10-16T00:41:49;51.63;;;28.38;;
18340;SDS011;9296;48.084;16.352;2022-10-16T00:47:02;50.55;;;28.83;;
18340;SDS011;9296;48.084;16.352;2022-10-16T00:49:29;46.90;;;28.00;;
18340;SDS011;9296;48.084;16.352;2022-10-16T00:51:56;50.08;;;29.42;;
18340;SDS011;9296;48.084;16.352;2022-10-16T00:54:26;48.42;;;28.92;;
18340;SDS011;9296;48.084;16.352;2022-10-16T00:56:54;49.85;;;28.27;;
18340;SDS011;9296;48.084;16.352;2022-10-16T00:59:22;69.60;;;28.52;;
18340;SDS011;9296;48.084;16.352;2022-10-16T01:01:50;63.17;;;28.15;;
18340;SDS011;9296;48.084;16.352;2022-10-16T01:04:18;48.05;;;28.40;;
18340;SDS011;9296;48.084;16.352;2022-10-16T01:06:46;56.28;;;27.98;;
18340;SDS011;9296;48.084;16.352;2022-10-16T01:09:20;58.42;;;26.92;;
18340;SDS011;9296;48.084;16.352;2022-10-16T01:11:51;47.10;;;27.55;;
18340;SDS011;9296;48.084;16.352;2022-10-16T01:20:16;45.00;;;26.95;;
18340;SDS011;9296;48.084;16.352;2022-10-16T01:22:48;49.95;;;28.45;;
18340;SDS011;9296;48.084;16.352;2022-10-16T01:25:21;46.00;;;27.55;;
18340;SDS011;9296;48.084;16.352;2022-10-16T01:27:52;43.28;;;26.77;;
18340;SDS011;9296;48.084;16.352;2022-10-16T01:33:24;56.15;;;26.98;;
18340;SDS011;9296;48.084;16.352;2022-10-16T01:35:54;67.45;;;27.90;;
18340;SDS011;9296;48.084;16.352;2022-10-16T01:38:23;60.85;;;27.15;;
18340;SDS011;9296;48.084;16.352;2022-10-16T01:40:53;74.70;;;27.65;;
18340;SDS011;9296;48.084;16.352;2022-10-16T01:49:33;66.47;;;27.50;;
18340;SDS011;9296;48.084;16.352;2022-10-16T01:52:02;58.20;;;27.30;;
18340;SDS011;9296;48.084;16.352;2022-10-16T01:54:31;45.30;;;26.75;;
18340;SDS011;9296;48.084;16.352;2022-10-16T01:56:59;50.00;;;27.70;;
18340;SDS011;9296;48.084;16.352;2022-10-16T02:05:21;68.65;;;27.40;;
18340;SDS011;9296;48.084;16.352;2022-10-16T02:07:50;55.20;;;26.90;;
18340;SDS011;9296;48.084;16.352;2022-10-16T02:10:17;74.05;;;28.15;;
18340;SDS011;9296;48.084;16.352;2022-10-16T02:12:45;65.68;;;28.15;;
18340;SDS011;9296;48.084;16.352;2022-10-16T02:15:14;69.10;;;26.95;;
18340;SDS011;9296;48.084;16.352;2022-10-16T02:17:42;61.55;;;26.45;;
18340;SDS011;9296;48.084;16.352;2022-10-16T02:20:09;63.03;;;26.85;;
18340;SDS011;9296;48.084;16.352;2022-10-16T02:22:39;59.20;;;26.70;;
18340;SDS011;9296;48.084;16.352;2022-10-16T02:25:08;52.78;;;27.13;;
18340;SDS011;9296;48.084;16.352;2022-10-16T02:27:38;59.88;;;26.98;;
18340;SDS011;9296;48.084;16.352;2022-10-16T02:30:27;77.45;;;27.65;;
18340;SDS011;9296;48.084;16.352;2022-10-16T02:32:55;52.38;;;25.90;;
18340;SDS011;9296;48.084;16.352;2022-10-16T02:35:24;68.03;;;25.27;;
18340;SDS011;9296;48.084;16.352;2022-10-16T02:37:53;63.05;;;27.17;;
18340;SDS011;9296;48.084;16.352;2022-10-16T02:40:21;74.60;;;27.98;;
18340;SDS011;9296;48.084;16.352;2022-10-16T02:42:49;107.80;;;28.90;;
18340;SDS011;9296;48.084;16.352;2022-10-16T02:48:20;61.55;;;25.80;;
18340;SDS011;9296;48.084;16.352;2022-10-16T02:50:47;53.38;;;26.23;;
18340;SDS011;9296;48.084;16.352;2022-10-16T02:53:16;51.60;;;25.77;;
18340;SDS011;9296;48.084;16.352;2022-10-16T02:55:43;55.95;;;26.25;;
18340;SDS011;9296;48.084;16.352;2022-10-16T02:58:10;46.30;;;26.08;;
18340;SDS011;9296;48.084;16.352;2022-10-16T03:03:42;42.65;;;25.90;;
18340;SDS011;9296;48.084;16.352;2022-10-16T03:06:09;44.42;;;26.48;;
18340;SDS011;9296;48.084;16.352;2022-10-16T03:08:38;56.60;;;26.02;;
18340;SDS011;9296;48.084;16.352;2022-10-16T03:11:05;45.53;;;25.70;;
18340;SDS011;9296;48.084;16.352;2022-10-16T03:13:32;60.88;;;25.67;;
18340;SDS011;9296;48.084;16.352;2022-10-16T03:15:59;43.58;;;23.98;;
18340;SDS011;9296;48.084;16.352;2022-10-16T03:18:26;38.15;;;24.90;;
18340;SDS011;9296;48.084;16.352;2022-10-16T03:20:53;58.90;;;26.20;;
18340;SDS011;9296;48.084;16.352;2022-10-16T03:23:21;41.85;;;24.42;;
18340;SDS011;9296;48.084;16.352;2022-10-16T03:25:49;59.20;;;25.75;;
18340;SDS011;9296;48.084;16.352;2022-10-16T03:28:16;60.38;;;25.77;;
18340;SDS011;9296;48.084;16.352;2022-10-16T03:33:47;43.15;;;25.95;;
18340;SDS011;9296;48.084;16.352;2022-10-16T03:36:14;41.95;;;25.60;;
18340;SDS011;9296;48.084;16.352;2022-10-16T03:38:41;43.92;;;25.23;;
18340;SDS011;9296;48.084;16.352;2022-10-16T03:41:09;45.50;;;25.33;;
18340;SDS011;9296;48.084;16.352;2022-10-16T03:43:36;59.53;;;26.35;;
18340;SDS011;9296;48.084;16.352;2022-10-16T03:46:04;43.55;;;25.55;;
18340;SDS011;9296;48.084;16.352;2022-10-16T03:48:31;51.00;;;25.52;;
18340;SDS011;9296;48.084;16.352;2022-10-16T03:50:58;41.70;;;23.77;;
18340;SDS011;9296;48.084;16.352;2022-10-16T03:53:25;41.15;;;24.48;;
18340;SDS011;9296;48.084;16.352;2022-10-16T03:55:52;41.47;;;23.23;;
18340;SDS011;9296;48.084;16.352;2022-10-16T03:58:21;46.80;;;24.05;;
18340;SDS011;9296;48.084;16.352;2022-10-16T04:03:51;42.08;;;22.90;;
18340;SDS011;9296;48.084;16.352;2022-10-16T04:06:18;33.25;;;21.30;;
18340;SDS011;9296;48.084;16.352;2022-10-16T04:08:46;51.10;;;21.50;;
18340;SDS011;9296;48.084;16.352;2022-10-16T04:11:13;79.22;;;20.85;;
18340;SDS011;9296;48.084;16.352;2022-10-16T04:13:41;48.13;;;19.20;;
18340;SDS011;9296;48.084;16.352;2022-10-16T04:16:09;37.60;;;19.15;;
18340;SDS011;9296;48.084;16.352;2022-10-16T04:18:36;65.47;;;19.38;;
18340;SDS011;9296;48.084;16.352;2022-10-16T04:21:03;74.50;;;20.35;;
18340;SDS011;9296;48.084;16.352;2022-10-16T04:23:30;55.33;;;19.25;;
18340;SDS011;9296;48.084;16.352;2022-10-16T04:25:58;34.95;;;19.60;;
18340;SDS011;9296;48.084;16.352;2022-10-16T04:28:25;29.45;;;19.25;;
18340;SDS011;9296;48.084;16.352;2022-10-16T04:33:57;38.10;;;19.20;;
18340;SDS011;9296;48.084;16.352;2022-10-16T04:36:24;55.75;;;19.33;;
18340;SDS011;9296;48.084;16.352;2022-10-16T04:38:51;34.28;;;19.00;;
18340;SDS011;9296;48.084;16.352;2022-10-16T04:41:19;52.72;;;18.77;;
18340;SDS011;9296;48.084;16.352;2022-10-16T04:47:07;53.33;;;19.55;;
18340;SDS011;9296;48.084;16.352;2022-10-16T04:49:36;64.10;;;22.08;;
18340;SDS011;9296;48.084;16.352;2022-10-16T04:52:03;67.75;;;24.05;;
18340;SDS011;9296;48.084;16.352;2022-10-16T04:54:30;56.25;;;23.60;;
18340;SDS011;9296;48.084;16.352;2022-10-16T04:56:58;51.85;;;22.15;;
18340;SDS011;9296;48.084;16.352;2022-10-16T04:59:25;44.78;;;22.38;;
18340;SDS011;9296;48.084;16.352;2022-10-16T05:01:52;54.35;;;23.42;;
18340;SDS011;9296;48.084;16.352;2022-10-16T05:04:19;34.95;;;21.65;;
18340;SDS011;9296;48.084;16.352;2022-10-16T05:06:48;38.92;;;22.90;;
18340;SDS011;9296;48.084;16.352;2022-10-16T05:09:15;36.33;;;21.85;;
18340;SDS011;9296;48.084;16.352;2022-10-16T05:11:42;38.92;;;22.13;;
18340;SDS011;9296;48.084;16.352;2022-10-16T05:17:14;33.67;;;21.88;;
18340;SDS011;9296;48.084;16.352;2022-10-16T05:19:41;34.47;;;21.52;;
18340;SDS011;9296;48.084;16.352;2022-10-16T05:22:09;52.35;;;22.00;;
18340;SDS011;9296;48.084;16.352;2022-10-16T05:24:37;30.23;;;21.23;;
18340;SDS011;9296;48.084;16.352;2022-10-16T05:27:04;34.50;;;21.65;;
18340;SDS011;9296;48.084;16.352;2022-10-16T05:29:31;35.28;;;21.48;;
18340;SDS011;9296;48.084;16.352;2022-10-16T05:31:58;32.53;;;21.35;;
18340;SDS011;9296;48.084;16.352;2022-10-16T05:34:25;39.80;;;21.45;;
18340;SDS011;9296;48.084;16.352;2022-10-16T05:36:52;32.15;;;21.00;;
18340;SDS011;9296;48.084;16.352;2022-10-16T05:39:21;36.00;;;20.90;;
18340;SDS011;9296;48.084;16.352;2022-10-16T05:41:49;31.95;;;21.00;;
18340;SDS011;9296;48.084;16.352;2022-10-16T05:47:21;32.45;;;22.38;;
18340;SDS011;9296;48.084;16.352;2022-10-16T05:49:49;32.22;;;21.80;;
18340;SDS011;9296;48.084;16.352;2022-10-16T05:52:16;35.08;;;22.23;;
18340;SDS011;9296;48.084;16.352;2022-10-16T05:54:44;35.55;;;22.70;;
18340;SDS011;9296;48.084;16.352;2022-10-16T05:57:12;35.92;;;21.90;;
18340;SDS011;9296;48.084;16.352;2022-10-16T05:59:39;33.10;;;21.65;;
18340;SDS011;9296;48.084;16.352;2022-10-16T06:02:07;35.72;;;22.55;;
18340;SDS011;9296;48.084;16.352;2022-10-16T06:04:34;34.22;;;22.17;;
18340;SDS011;9296;48.084;16.352;2022-10-16T06:07:01;33.63;;;21.50;;
18340;SDS011;9296;48.084;16.352;2022-10-16T06:09:28;34.63;;;21.90;;
18340;SDS011;9296;48.084;16.352;2022-10-16T06:11:57;36.33;;;21.08;;
18340;SDS011;9296;48.084;16.352;2022-10-16T06:17:28;36.15;;;21.35;;
18340;SDS011;9296;48.084;16.352;2022-10-16T06:19:55;35.80;;;22.10;;
18340;SDS011;9296;48.084;16.352;2022-10-16T06:22:23;34.75;;;21.33;;
18340;SDS011;9296;48.084;16.352;2022-10-16T06:24:50;36.70;;;22.30;;
18340;SDS011;9296;48.084;16.352;2022-10-16T06:27:18;36.85;;;21.98;;
18340;SDS011;9296;48.084;16.352;2022-10-16T06:32:49;33.65;;;21.65;;
18340;SDS011;9296;48.084;16.352;2022-10-16T06:35:16;37.83;;;23.25;;
18340;SDS011;9296;48.084;16.352;2022-10-16T06:37:43;36.97;;;21.98;;
18340;SDS011;9296;48.084;16.352;2022-10-16T06:40:10;39.63;;;23.65;;
18340;SDS011;9296;48.084;16.352;2022-10-16T06:42:41;45.20;;;21.98;;
18340;SDS011;9296;48.084;16.352;2022-10-16T06:51:04;53.63;;;24.20;;
18340;SDS011;9296;48.084;16.352;2022-10-16T06:53:32;57.55;;;25.05;;
18340;SDS011;9296;48.084;16.352;2022-10-16T06:56:06;54.92;;;24.42;;
18340;SDS011;9296;48.084;16.352;2022-10-16T06:58:34;102.75;;;27.73;;
18340;SDS011;9296;48.084;16.352;2022-10-16T07:01:01;49.60;;;26.95;;
18340;SDS011;9296;48.084;16.352;2022-10-16T07:03:29;67.97;;;28.58;;
18340;SDS011;9296;48.084;16.352;2022-10-16T07:05:56;48.70;;;26.83;;
18340;SDS011;9296;48.084;16.352;2022-10-16T07:08:23;59.45;;;28.23;;
18340;SDS011;9296;48.084;16.352;2022-10-16T07:10:57;50.30;;;27.63;;
18340;SDS011;9296;48.084;16.352;2022-10-16T07:13:24;73.40;;;29.63;;
18340;SDS011;9296;48.084;16.352;2022-10-16T07:18:59;77.28;;;29.20;;
18340;SDS011;9296;48.084;16.352;2022-10-16T07:21:27;68.30;;;28.70;;
18340;SDS011;9296;48.084;16.352;2022-10-16T07:23:55;60.03;;;27.85;;
18340;SDS011;9296;48.084;16.352;2022-10-16T07:26:23;64.93;;;27.45;;
18340;SDS011;9296;48.084;16.352;2022-10-16T07:28:51;46.85;;;27.58;;
18340;SDS011;9296;48.084;16.352;2022-10-16T07:34:23;71.03;;;26.88;;
18340;SDS011;9296;48.084;16.352;2022-10-16T07:36:51;54.63;;;27.23;;
18340;SDS011;9296;48.084;16.352;2022-10-16T07:39:18;51.25;;;27.25;;
18340;SDS011;9296;48.084;16.352;2022-10-16T07:41:45;58.92;;;26.63;;
18340;SDS011;9296;48.084;16.352;2022-10-16T07:44:13;61.85;;;27.33;;
18340;SDS011;9296;48.084;16.352;2022-10-16T07:49:45;50.85;;;27.17;;
18340;SDS011;9296;48.084;16.352;2022-10-16T07:52:12;43.72;;;27.23;;
18340;SDS011;9296;48.084;16.352;2022-10-16T07:54:39;46.55;;;25.52;;
18340;SDS011;9296;48.084;16.352;2022-10-16T07:57:06;47.92;;;27.95;;
18340;SDS011;9296;48.084;16.352;2022-10-16T08:02:56;46.83;;;28.35;;
18340;SDS011;9296;48.084;16.352;2022-10-16T08:05:26;41.28;;;27.23;;
18340;SDS011;9296;48.084;16.352;2022-10-16T08:07:53;45.38;;;27.65;;
18340;SDS011;9296;48.084;16.352;2022-10-16T08:10:21;57.80;;;28.15;;
18340;SDS011;9296;48.084;16.352;2022-10-16T08:12:49;53.17;;;27.27;;
18340;SDS011;9296;48.084;16.352;2022-10-16T08:18:20;50.28;;;27.58;;
18340;SDS011;9296;48.084;16.352;2022-10-16T08:20:54;58.55;;;29.73;;
18340;SDS011;9296;48.084;16.352;2022-10-16T08:23:22;52.20;;;30.08;;
18340;SDS011;9296;48.084;16.352;2022-10-16T08:25:51;59.53;;;32.28;;
18340;SDS011;9296;48.084;16.352;2022-10-16T08:28:18;54.95;;;30.80;;
18340;SDS011;9296;48.084;16.352;2022-10-16T08:30:45;49.28;;;29.10;;
18340;SDS011;9296;48.084;16.352;2022-10-16T08:33:13;47.28;;;27.67;;
18340;SDS011;9296;48.084;16.352;2022-10-16T08:35:40;44.17;;;27.13;;
18340;SDS011;9296;48.084;16.352;2022-10-16T08:38:08;41.88;;;26.33;;
18340;SDS011;9296;48.084;16.352;2022-10-16T08:40:36;43.40;;;25.77;;
18340;SDS011;9296;48.084;16.352;2022-10-16T08:43:11;38.95;;;24.77;;
18340;SDS011;9296;48.084;16.352;2022-10-16T08:51:30;45.10;;;27.65;;
18340;SDS011;9296;48.084;16.352;2022-10-16T08:54:01;43.17;;;27.10;;
18340;SDS011;9296;48.084;16.352;2022-10-16T08:56:29;43.05;;;26.88;;
18340;SDS011;9296;48.084;16.352;2022-10-16T08:58:59;46.10;;;27.70;;
18340;SDS011;9296;48.084;16.352;2022-10-16T09:07:13;42.25;;;26.90;;
18340;SDS011;9296;48.084;16.352;2022-10-16T09:12:31;48.70;;;30.27;;
18340;SDS011;9296;48.084;16.352;2022-10-16T09:15:01;44.75;;;26.58;;
18340;SDS011;9296;48.084;16.352;2022-10-16T09:17:36;47.45;;;25.98;;
18340;SDS011;9296;48.084;16.352;2022-10-16T09:20:18;42.67;;;27.50;;
18340;SDS011;9296;48.084;16.352;2022-10-16T09:22:46;45.13;;;28.50;;
18340;SDS011;9296;48.084;16.352;2022-10-16T09:25:14;46.38;;;28.88;;
18340;SDS011;9296;48.084;16.352;2022-10-16T09:27:44;48.45;;;30.75;;
18340;SDS011;9296;48.084;16.352;2022-10-16T09:33:17;45.88;;;29.15;;
18340;SDS011;9296;48.084;16.352;2022-10-16T09:35:45;42.58;;;27.27;;
18340;SDS011;9296;48.084;16.352;2022-10-16T09:38:20;48.55;;;28.60;;
18340;SDS011;9296;48.084;16.352;2022-10-16T09:40:47;49.25;;;30.90;;
18340;SDS011;9296;48.084;16.352;2022-10-16T09:52:12;44.58;;;28.75;;
18340;SDS011;9296;48.084;16.352;2022-10-16T09:54:48;45.35;;;28.17;;
18340;SDS011;9296;48.084;16.352;2022-10-16T09:57:15;40.72;;;26.90;;
18340;SDS011;9296;48.084;16.352;2022-10-16T09:59:45;39.05;;;26.45;;
18340;SDS011;9296;48.084;16.352;2022-10-16T10:05:17;42.28;;;26.98;;
18340;SDS011;9296;48.084;16.352;2022-10-16T10:07:52;48.15;;;30.10;;
18340;SDS011;9296;48.084;16.352;2022-10-16T10:10:21;44.70;;;28.00;;
18340;SDS011;9296;48.084;16.352;2022-10-16T10:12:49;45.22;;;29.05;;
18340;SDS011;9296;48.084;16.352;2022-10-16T10:15:16;44.58;;;28.17;;
18340;SDS011;9296;48.084;16.352;2022-10-16T10:17:47;48.25;;;29.77;;
18340;SDS011;9296;48.084;16.352;2022-10-16T10:22:59;49.15;;;29.25;;
18340;SDS011;9296;48.084;16.352;2022-10-16T10:25:30;45.67;;;29.48;;
18340;SDS011;9296;48.084;16.352;2022-10-16T10:30:52;49.45;;;29.10;;
18340;SDS011;9296;48.084;16.352;2022-10-16T10:33:28;47.85;;;29.38;;
18340;SDS011;9296;48.084;16.352;2022-10-16T10:35:57;43.13;;;27.42;;
18340;SDS011;9296;48.084;16.352;2022-10-16T10:38:33;46.80;;;29.23;;
18340;SDS011;9296;48.084;16.352;2022-10-16T10:41:08;48.33;;;29.30;;
18340;SDS011;9296;48.084;16.352;2022-10-16T10:43:42;46.38;;;29.85;;
18340;SDS011;9296;48.084;16.352;2022-10-16T10:46:12;49.88;;;30.45;;
18340;SDS011;9296;48.084;16.352;2022-10-16T10:51:24;45.47;;;28.88;;
18340;SDS011;9296;48.084;16.352;2022-10-16T10:53:55;44.15;;;28.98;;
18340;SDS011;9296;48.084;16.352;2022-10-16T10:56:29;48.30;;;29.63;;
18340;SDS011;9296;48.084;16.352;2022-10-16T10:59:06;47.40;;;29.85;;
18340;SDS011;9296;48.084;16.352;2022-10-16T11:01:39;46.03;;;29.40;;
18340;SDS011;9296;48.084;16.352;2022-10-16T11:04:16;45.75;;;29.45;;
18340;SDS011;9296;48.084;16.352;2022-10-16T11:06:48;42.65;;;28.40;;
18340;SDS011;9296;48.084;16.352;2022-10-16T11:09:17;42.60;;;29.38;;
18340;SDS011;9296;48.084;16.352;2022-10-16T11:11:46;48.00;;;30.40;;
18340;SDS011;9296;48.084;16.352;2022-10-16T11:14:16;44.55;;;29.33;;
18340;SDS011;9296;48.084;16.352;2022-10-16T11:19:49;40.90;;;28.15;;
18340;SDS011;9296;48.084;16.352;2022-10-16T11:22:19;41.67;;;28.50;;
18340;SDS011;9296;48.084;16.352;2022-10-16T11:24:52;42.80;;;30.10;;
18340;SDS011;9296;48.084;16.352;2022-10-16T11:27:21;39.25;;;27.33;;
18340;SDS011;9296;48.084;16.352;2022-10-16T11:29:53;44.20;;;29.60;;
18340;SDS011;9296;48.084;16.352;2022-10-16T11:35:28;39.42;;;28.90;;
18340;SDS011;9296;48.084;16.352;2022-10-16T11:37:59;49.42;;;34.97;;
18340;SDS011;9296;48.084;16.352;2022-10-16T11:40:31;41.25;;;29.90;;
18340;SDS011;9296;48.084;16.352;2022-10-16T11:43:01;45.15;;;30.38;;
18340;SDS011;9296;48.084;16.352;2022-10-16T11:45:32;43.95;;;32.38;;
18340;SDS011;9296;48.084;16.352;2022-10-16T11:48:00;43.85;;;31.38;;
18340;SDS011;9296;48.084;16.352;2022-10-16T11:50:29;40.53;;;29.15;;
18340;SDS011;9296;48.084;16.352;2022-10-16T11:53:00;39.63;;;28.25;;
18340;SDS011;9296;48.084;16.352;2022-10-16T11:55:29;40.97;;;29.42;;
18340;SDS011;9296;48.084;16.352;2022-10-16T11:58:01;41.38;;;29.83;;
18340;SDS011;9296;48.084;16.352;2022-10-16T12:00:30;43.53;;;32.63;;
18340;SDS011;9296;48.084;16.352;2022-10-16T12:03:01;60.03;;;45.90;;
18340;SDS011;9296;48.084;16.352;2022-10-16T12:05:33;51.92;;;36.22;;
18340;SDS011;9296;48.084;16.352;2022-10-16T12:08:06;41.15;;;30.63;;
18340;SDS011;9296;48.084;16.352;2022-10-16T12:10:36;41.80;;;30.27;;
18340;SDS011;9296;48.084;16.352;2022-10-16T12:13:05;40.35;;;29.58;;
18340;SDS011;9296;48.084;16.352;2022-10-16T12:15:41;42.42;;;30.52;;
18340;SDS011;9296;48.084;16.352;2022-10-16T12:18:19;40.85;;;29.92;;
18340;SDS011;9296;48.084;16.352;2022-10-16T12:20:53;42.97;;;29.67;;
18340;SDS011;9296;48.084;16.352;2022-10-16T12:23:24;41.25;;;30.42;;
18340;SDS011;9296;48.084;16.352;2022-10-16T12:25:53;49.50;;;34.92;;
18340;SDS011;9296;48.084;16.352;2022-10-16T12:28:25;43.88;;;31.85;;
18340;SDS011;9296;48.084;16.352;2022-10-16T12:31:11;40.60;;;29.42;;
18340;SDS011;9296;48.084;16.352;2022-10-16T12:33:39;42.92;;;29.77;;
18340;SDS011;9296;48.084;16.352;2022-10-16T12:36:08;42.65;;;30.95;;
18340;SDS011;9296;48.084;16.352;2022-10-16T12:38:38;45.53;;;35.03;;
18340;SDS011;9296;48.084;16.352;2022-10-16T12:41:12;41.53;;;30.92;;
18340;SDS011;9296;48.084;16.352;2022-10-16T12:43:52;42.40;;;30.88;;
18340;SDS011;9296;48.084;16.352;2022-10-16T12:49:19;42.03;;;31.20;;
18340;SDS011;9296;48.084;16.352;2022-10-16T12:51:47;40.58;;;31.38;;
18340;SDS011;9296;48.084;16.352;2022-10-16T12:54:15;43.13;;;31.23;;
18340;SDS011;9296;48.084;16.352;2022-10-16T12:56:47;41.28;;;30.73;;
18340;SDS011;9296;48.084;16.352;2022-10-16T12:59:21;42.50;;;31.48;;
18340;SDS011;9296;48.084;16.352;2022-10-16T13:01:56;47.35;;;33.13;;
18340;SDS011;9296;48.084;16.352;2022-10-16T13:04:38;42.42;;;30.02;;
18340;SDS011;9296;48.084;16.352;2022-10-16T13:07:17;42.92;;;31.27;;
18340;SDS011;9296;48.084;16.352;2022-10-16T13:09:52;43.72;;;31.02;;
18340;SDS011;9296;48.084;16.352;2022-10-16T13:12:38;42.20;;;30.08;;
18340;SDS011;9296;48.084;16.352;2022-10-16T13:15:24;44.47;;;32.03;;
18340;SDS011;9296;48.084;16.352;2022-10-16T13:18:13;42.47;;;30.48;;
18340;SDS011;9296;48.084;16.352;2022-10-16T13:20:56;44.20;;;31.55;;
18340;SDS011;9296;48.084;16.352;2022-10-16T13:23:29;46.50;;;31.50;;
18340;SDS011;9296;48.084;16.352;2022-10-16T13:26:03;45.50;;;32.70;;
18340;SDS011;9296;48.084;16.352;2022-10-16T13:28:33;46.25;;;33.35;;
18340;SDS011;9296;48.084;16.352;2022-10-16T13:31:02;46.03;;;32.20;;
18340;SDS011;9296;48.084;16.352;2022-10-16T13:33:31;45.65;;;32.55;;
18340;SDS011;9296;48.084;16.352;2022-10-16T13:35:59;49.22;;;33.53;;
18340;SDS011;9296;48.084;16.352;2022-10-16T13:38:26;45.22;;;32.40;;
18340;SDS011;9296;48.084;16.352;2022-10-16T13:40:54;45.25;;;33.03;;
18340;SDS011;9296;48.084;16.352;2022-10-16T13:43:23;48.40;;;32.22;;
18340;SDS011;9296;48.084;16.352;2022-10-16T13:48:57;45.42;;;32.42;;
18340;SDS011;9296;48.084;16.352;2022-10-16T13:51:32;49.38;;;32.83;;
18340;SDS011;9296;48.084;16.352;2022-10-16T13:53:59;46.72;;;32.15;;
18340;SDS011;9296;48.084;16.352;2022-10-16T13:56:27;48.70;;;32.85;;
18340;SDS011;9296;48.084;16.352;2022-10-16T13:58:58;49.20;;;33.63;;
18340;SDS011;9296;48.084;16.352;2022-10-16T14:01:26;49.83;;;32.88;;
18340;SDS011;9296;48.084;16.352;2022-10-16T14:04:01;52.30;;;34.47;;
18340;SDS011;9296;48.084;16.352;2022-10-16T14:06:29;48.47;;;33.65;;
18340;SDS011;9296;48.084;16.352;2022-10-16T14:08:59;48.97;;;33.75;;
18340;SDS011;9296;48.084;16.352;2022-10-16T14:11:26;46.33;;;32.40;;
18340;SDS011;9296;48.084;16.352;2022-10-16T14:13:54;48.50;;;33.80;;
18340;SDS011;9296;48.084;16.352;2022-10-16T14:22:32;49.22;;;33.58;;
18340;SDS011;9296;48.084;16.352;2022-10-16T14:25:01;52.13;;;33.55;;
18340;SDS011;9296;48.084;16.352;2022-10-16T14:27:30;50.08;;;33.45;;
18340;SDS011;9296;48.084;16.352;2022-10-16T14:32:31;49.85;;;34.17;;
18340;SDS011;9296;48.084;16.352;2022-10-16T14:35:01;52.58;;;35.13;;
18340;SDS011;9296;48.084;16.352;2022-10-16T14:37:29;50.97;;;34.35;;
18340;SDS011;9296;48.084;16.352;2022-10-16T14:39:57;49.63;;;34.08;;
18340;SDS011;9296;48.084;16.352;2022-10-16T14:42:25;47.25;;;33.00;;
18340;SDS011;9296;48.084;16.352;2022-10-16T14:44:52;49.72;;;33.33;;
18340;SDS011;9296;48.084;16.352;2022-10-16T14:47:21;49.10;;;33.78;;
18340;SDS011;9296;48.084;16.352;2022-10-16T14:49:50;49.60;;;33.83;;
18340;SDS011;9296;48.084;16.352;2022-10-16T14:52:18;50.38;;;33.95;;
18340;SDS011;9296;48.084;16.352;2022-10-16T14:54:47;51.28;;;34.75;;
18340;SDS011;9296;48.084;16.352;2022-10-16T14:57:17;47.85;;;33.30;;
18340;SDS011;9296;48.084;16.352;2022-10-16T14:59:45;51.00;;;34.50;;
18340;SDS011;9296;48.084;16.352;2022-10-16T15:02:16;45.63;;;32.60;;
18340;SDS011;9296;48.084;16.352;2022-10-16T15:04:45;48.55;;;33.88;;
18340;SDS011;9296;48.084;16.352;2022-10-16T15:07:12;50.30;;;33.85;;
18340;SDS011;9296;48.084;16.352;2022-10-16T15:09:39;48.67;;;34.22;;
18340;SDS011;9296;48.084;16.352;2022-10-16T15:12:06;50.78;;;34.47;;
18340;SDS011;9296;48.084;16.352;2022-10-16T15:14:35;50.53;;;34.72;;
18340;SDS011;9296;48.084;16.352;2022-10-16T15:23:06;49.70;;;33.70;;
18340;SDS011;9296;48.084;16.352;2022-10-16T15:25:35;52.50;;;33.45;;
18340;SDS011;9296;48.084;16.352;2022-10-16T15:28:04;47.25;;;33.83;;
18340;SDS011;9296;48.084;16.352;2022-10-16T15:30:34;49.83;;;33.40;;
18340;SDS011;9296;48.084;16.352;2022-10-16T15:36:05;55.15;;;36.60;;
18340;SDS011;9296;48.084;16.352;2022-10-16T15:38:32;57.28;;;37.70;;
18340;SDS011;9296;48.084;16.352;2022-10-16T15:41:00;59.08;;;38.85;;
18340;SDS011;9296;48.084;16.352;2022-10-16T15:43:27;62.30;;;39.33;;
18340;SDS011;9296;48.084;16.352;2022-10-16T15:45:59;71.13;;;46.00;;
18340;SDS011;9296;48.084;16.352;2022-10-16T15:51:30;60.92;;;39.38;;
18340;SDS011;9296;48.084;16.352;2022-10-16T15:54:20;59.58;;;38.47;;
18340;SDS011;9296;48.084;16.352;2022-10-16T15:56:51;61.58;;;39.50;;
18340;SDS011;9296;48.084;16.352;2022-10-16T15:59:18;61.03;;;39.15;;
18340;SDS011;9296;48.084;16.352;2022-10-16T16:01:48;61.20;;;38.10;;
18340;SDS011;9296;48.084;16.352;2022-10-16T16:04:15;60.28;;;38.60;;
18340;SDS011;9296;48.084;16.352;2022-10-16T16:06:43;57.38;;;37.28;;
18340;SDS011;9296;48.084;16.352;2022-10-16T16:09:10;57.42;;;37.40;;
18340;SDS011;9296;48.084;16.352;2022-10-16T16:11:38;60.95;;;39.15;;
18340;SDS011;9296;48.084;16.352;2022-10-16T16:14:05;58.35;;;36.45;;
18340;SDS011;9296;48.084;16.352;2022-10-16T16:22:41;63.47;;;39.20;;
18340;SDS011;9296;48.084;16.352;2022-10-16T16:25:08;60.03;;;36.88;;
18340;SDS011;9296;48.084;16.352;2022-10-16T16:27:35;63.53;;;39.17;;
18340;SDS011;9296;48.084;16.352;2022-10-16T16:30:04;58.50;;;36.67;;
18340;SDS011;9296;48.084;16.352;2022-10-16T16:32:32;63.08;;;38.03;;
18340;SDS011;9296;48.084;16.352;2022-10-16T16:35:00;60.13;;;36.88;;
18340;SDS011;9296;48.084;16.352;2022-10-16T16:37:27;60.13;;;37.28;;
18340;SDS011;9296;48.084;16.352;2022-10-16T16:39:56;57.42;;;37.13;;
18340;SDS011;9296;48.084;16.352;2022-10-16T16:42:24;59.72;;;35.60;;
18340;SDS011;9296;48.084;16.352;2022-10-16T16:44:51;58.63;;;34.35;;
18340;SDS011;9296;48.084;16.352;2022-10-16T16:47:19;58.33;;;35.00;;
18340;SDS011;9296;48.084;16.352;2022-10-16T16:49:46;58.20;;;35.03;;
18340;SDS011;9296;48.084;16.352;2022-10-16T16:52:13;57.10;;;35.35;;
18340;SDS011;9296;48.084;16.352;2022-10-16T16:54:40;56.85;;;34.75;;
18340;SDS011;9296;48.084;16.352;2022-10-16T16:57:10;53.65;;;32.60;;
18340;SDS011;9296;48.084;16.352;2022-10-16T16:59:37;53.47;;;33.03;;
18340;SDS011;9296;48.084;16.352;2022-10-16T17:02:04;55.30;;;33.28;;
18340;SDS011;9296;48.084;16.352;2022-10-16T17:04:31;55.03;;;33.45;;
18340;SDS011;9296;48.084;16.352;2022-10-16T17:06:59;51.78;;;32.38;;